Terminal Aerodrome Forecast
Issued by NWS Spokane, WA

Home | Current Version | Previous Version | Text Only | Print | Product List | Glossary On
Versions: 1 2 3 4 5 6 7 8 9 10 11 12 13 14 15
000
FTUS46 KOTX 300652 AAA
TAFLWS
TAF AMD
KLWS 300652Z 3007/0106 25007KT P6SM -SHRA SCT040 BKN080
      TEMPO 3007/3008 19018G29KT P6SM -TSRA BKN060CB
     FM301000 28004KT P6SM VCSH SCT100 BKN150
     FM302000 32006KT P6SM SCT100 SCT150
     FM302300 30008KT P6SM -SHRA BKN080 BKN120 BKN200 PROB30
      0100/0104 P6SM -TSRA BKN080CB BKN120=

USA.gov is the U.S. government's official web portal to all federal, state and local government web resources and services.